Time;durP1;ratioP1;P1;durP2;ratioP2;P2;SDS_P1;SDS_P2;PMS_P1;PMS_P2;Temp;Humidity;BMP_temperature;BMP_pressure;BME280_temperature;BME280_humidity;BME280_pressure;Samples;Min_cycle;Max_cycle;Signal;HPM_P1;HPM_P2
2022/01/09 00:01:25;;;;;;;2.25;1.20;;;2.80;99.90;;;;;;5011103;28;20473;-70
2022/01/09 00:03:51;;;;;;;1.58;1.25;;;2.70;99.90;;;;;;5002907;28;20034;-70
2022/01/09 00:06:17;;;;;;;1.35;1.17;;;2.70;99.90;;;;;;5010239;28;20048;-69
2022/01/09 00:08:44;;;;;;;1.00;1.00;;;2.70;99.90;;;;;;5000540;28;20057;-70
2022/01/09 00:11:11;;;;;;;1.10;1.00;;;2.70;99.90;;;;;;5009330;28;20406;-70
2022/01/09 00:13:36;;;;;;;1.30;1.20;;;2.70;99.90;;;;;;5002537;28;20030;-70
2022/01/09 00:16:02;;;;;;;3.47;1.35;;;2.60;99.90;;;;;;5007893;28;20034;-70
2022/01/09 00:18:28;;;;;;;2.13;1.30;;;2.60;99.90;;;;;;5004293;28;20046;-69
2022/01/09 00:20:54;;;;;;;1.10;1.00;;;2.60;99.90;;;;;;4997306;28;20054;-70
2022/01/09 00:23:19;;;;;;;2.13;1.10;;;2.70;99.90;;;;;;5009915;28;20034;-70
2022/01/09 00:25:45;;;;;;;1.17;1.08;;;2.70;99.90;;;;;;5003521;28;20090;-70
2022/01/09 00:28:11;;;;;;;1.50;1.05;;;2.70;99.90;;;;;;4994175;28;20025;-70
2022/01/09 00:30:37;;;;;;;0.95;0.95;;;2.70;99.90;;;;;;5001923;28;20053;-70
2022/01/09 00:33:04;;;;;;;2.35;1.20;;;2.70;99.90;;;;;;5004696;28;20025;-70
2022/01/09 00:35:30;;;;;;;1.20;1.20;;;2.70;99.90;;;;;;4997527;28;20082;-70
2022/01/09 00:37:56;;;;;;;1.17;1.08;;;2.70;99.90;;;;;;5002088;28;20053;-69
2022/01/09 00:40:21;;;;;;;1.10;1.10;;;2.70;99.90;;;;;;5010930;28;20041;-70
2022/01/09 00:42:47;;;;;;;1.33;1.17;;;2.70;99.90;;;;;;5010832;28;20049;-70
2022/01/09 00:45:14;;;;;;;1.40;1.15;;;2.70;99.90;;;;;;5006377;28;20026;-69
2022/01/09 00:47:40;;;;;;;1.92;1.15;;;2.70;99.90;;;;;;5011840;28;20029;-70
2022/01/09 00:50:07;;;;;;;1.20;1.10;;;2.60;99.90;;;;;;5009727;28;20029;-70
2022/01/09 00:52:33;;;;;;;1.77;1.25;;;2.70;99.90;;;;;;5010185;28;20109;-69
2022/01/09 00:54:58;;;;;;;1.95;1.02;;;2.60;99.90;;;;;;5010337;28;20800;-69
2022/01/09 00:57:24;;;;;;;1.10;1.00;;;2.70;99.90;;;;;;5010680;28;20045;-69
2022/01/09 00:59:50;;;;;;;2.25;1.00;;;2.70;99.90;;;;;;5005507;28;20496;-70
2022/01/09 01:02:15;;;;;;;1.88;1.27;;;2.70;99.90;;;;;;5010653;28;20048;-70
2022/01/09 01:04:41;;;;;;;1.27;1.17;;;2.60;99.90;;;;;;5010511;28;20065;-69
2022/01/09 01:07:08;;;;;;;5.15;1.05;;;2.70;99.90;;;;;;5006506;28;20393;-70
2022/01/09 01:09:33;;;;;;;1.70;1.20;;;2.60;99.90;;;;;;5009677;28;20049;-69
2022/01/09 01:11:59;;;;;;;1.58;1.20;;;2.60;99.90;;;;;;5010531;28;20026;-69
2022/01/09 01:14:27;;;;;;;1.10;1.00;;;2.60;99.90;;;;;;5009621;28;20116;-69
2022/01/09 01:16:54;;;;;;;1.23;1.13;;;2.60;99.90;;;;;;5010355;28;20108;-70
2022/01/09 01:19:20;;;;;;;1.10;1.00;;;2.60;99.90;;;;;;5009897;28;20037;-69
2022/01/09 01:21:46;;;;;;;1.17;1.00;;;2.60;99.90;;;;;;5001561;28;20041;-70
2022/01/09 01:24:12;;;;;;;1.08;0.98;;;2.60;99.90;;;;;;5005610;28;20025;-70
2022/01/09 01:26:38;;;;;;;1.60;1.20;;;2.60;99.90;;;;;;5010995;28;20053;-70
2022/01/09 01:29:03;;;;;;;3.97;1.23;;;2.60;99.90;;;;;;5009780;28;20413;-70
2022/01/09 01:31:29;;;;;;;1.75;1.00;;;2.60;99.90;;;;;;5010108;28;20036;-70
2022/01/09 01:33:55;;;;;;;1.70;1.10;;;2.60;99.90;;;;;;5009906;28;20312;-70
2022/01/09 01:36:21;;;;;;;1.75;1.10;;;2.60;99.90;;;;;;5000569;28;20054;-70
2022/01/09 01:38:46;;;;;;;1.48;0.98;;;2.60;99.90;;;;;;5007446;28;20048;-70
2022/01/09 01:41:12;;;;;;;1.65;1.10;;;2.60;99.90;;;;;;5009708;28;20041;-69
2022/01/09 01:43:38;;;;;;;2.15;1.20;;;2.60;99.90;;;;;;5003166;28;20331;-69
2022/01/09 01:46:04;;;;;;;1.38;1.27;;;2.60;99.90;;;;;;5005519;28;20017;-70
2022/01/09 01:48:30;;;;;;;1.02;1.00;;;2.60;99.90;;;;;;5008885;28;20157;-70
2022/01/09 01:50:57;;;;;;;4.30;1.20;;;2.70;99.90;;;;;;5001102;28;20022;-70
2022/01/09 01:53:24;;;;;;;1.00;1.00;;;2.70;99.90;;;;;;5005935;28;20049;-70
2022/01/09 01:55:55;;;;;;;1.13;1.08;;;2.70;99.90;;;;;;5009164;28;20041;-70
2022/01/09 01:58:23;;;;;;;1.30;1.20;;;2.70;99.90;;;;;;5007781;28;20644;-69
2022/01/09 02:00:48;;;;;;;2.65;1.10;;;2.70;99.90;;;;;;5008888;28;20034;-69
2022/01/09 02:03:14;;;;;;;1.45;0.90;;;2.80;99.90;;;;;;5005536;28;20437;-69
2022/01/09 02:05:44;;;;;;;1.27;1.10;;;2.80;99.90;;;;;;5008596;28;20061;-69
2022/01/09 02:08:10;;;;;;;1.08;1.05;;;2.80;99.90;;;;;;5009024;28;20026;-70
2022/01/09 02:10:44;;;;;;;1.23;1.10;;;2.80;99.90;;;;;;5001545;28;20026;-69
2022/01/09 02:13:11;;;;;;;1.60;1.15;;;2.80;99.90;;;;;;5008825;28;20029;-69
2022/01/09 02:15:42;;;;;;;2.80;1.30;;;2.90;99.90;;;;;;4998900;28;20029;-70
2022/01/09 02:18:10;;;;;;;1.05;1.05;;;2.90;99.90;;;;;;5009282;28;20575;-70
2022/01/09 02:20:36;;;;;;;1.40;1.30;;;2.90;99.90;;;;;;5007470;28;20034;-69
2022/01/09 02:23:03;;;;;;;1.30;1.20;;;2.90;99.90;;;;;;4997162;28;20032;-70
2022/01/09 02:25:29;;;;;;;1.45;1.20;;;2.90;99.90;;;;;;5009115;28;20352;-69
2022/01/09 02:27:55;;;;;;;2.58;1.60;;;3.00;99.90;;;;;;5008759;28;20021;-69
2022/01/09 02:30:21;;;;;;;1.30;1.20;;;3.00;99.90;;;;;;5008456;28;20117;-69
2022/01/09 02:32:47;;;;;;;1.92;1.10;;;3.00;99.90;;;;;;5008929;28;20212;-70
2022/01/09 02:35:12;;;;;;;1.17;1.13;;;3.00;99.90;;;;;;5008147;28;20025;-70
2022/01/09 02:37:38;;;;;;;0.90;0.90;;;3.00;99.90;;;;;;4997470;28;20125;-70
2022/01/09 02:40:05;;;;;;;1.77;1.05;;;3.00;99.90;;;;;;5019917;28;20056;-69
2022/01/09 02:42:32;;;;;;;1.15;1.05;;;3.00;99.90;;;;;;5009007;28;20490;-70
2022/01/09 02:44:58;;;;;;;1.30;1.20;;;3.00;99.90;;;;;;5008392;28;20132;-69
2022/01/09 02:47:25;;;;;;;1.20;1.10;;;3.00;99.90;;;;;;5020851;28;20030;-69
2022/01/09 02:49:53;;;;;;;1.45;1.35;;;3.10;99.90;;;;;;5006986;28;20045;-69
2022/01/09 02:52:33;;;;;;;2.05;1.10;;;3.10;99.90;;;;;;5008547;28;20127;-70
2022/01/09 02:55:11;;;;;;;1.13;1.00;;;3.10;99.90;;;;;;5008173;28;20065;-69
2022/01/09 02:57:39;;;;;;;1.20;0.93;;;3.10;99.90;;;;;;5006877;28;20030;-71
2022/01/09 03:00:11;;;;;;;1.15;1.05;;;3.10;99.90;;;;;;5004880;28;20037;-70
2022/01/09 03:02:37;;;;;;;1.10;1.10;;;3.10;99.90;;;;;;5009064;28;20029;-69
2022/01/09 03:05:03;;;;;;;1.10;1.00;;;3.10;99.90;;;;;;5004863;28;20038;-70
2022/01/09 03:07:29;;;;;;;0.90;0.90;;;3.20;99.90;;;;;;5008499;28;20030;-70
2022/01/09 03:09:55;;;;;;;1.08;1.05;;;3.20;99.90;;;;;;5011268;28;20156;-70
2022/01/09 03:12:22;;;;;;;0.90;0.90;;;3.20;99.90;;;;;;5012312;28;20494;-69
2022/01/09 03:14:48;;;;;;;0.82;0.82;;;3.30;99.90;;;;;;5012097;28;20056;-70
2022/01/09 03:17:14;;;;;;;0.75;0.75;;;3.30;99.90;;;;;;5012449;28;20025;-70
2022/01/09 03:19:39;;;;;;;1.05;0.82;;;3.30;99.90;;;;;;5012392;28;20097;-71
2022/01/09 03:22:05;;;;;;;0.70;0.70;;;3.30;99.90;;;;;;5004152;28;20037;-69
2022/01/09 03:24:31;;;;;;;0.60;0.60;;;3.40;99.90;;;;;;5011876;28;20026;-70
2022/01/09 03:26:56;;;;;;;0.60;0.60;;;3.40;99.90;;;;;;4996179;28;20469;-70
2022/01/09 03:29:22;;;;;;;0.60;0.60;;;3.40;99.90;;;;;;5011768;28;20022;-70
2022/01/09 03:31:48;;;;;;;0.60;0.60;;;3.50;99.90;;;;;;5011664;28;20493;-70
2022/01/09 03:34:13;;;;;;;0.60;0.60;;;3.50;99.90;;;;;;5011934;28;20040;-70
2022/01/09 03:36:39;;;;;;;0.40;0.40;;;3.50;99.90;;;;;;5011921;28;20044;-70
2022/01/09 03:39:05;;;;;;;0.45;0.45;;;3.50;99.90;;;;;;5011689;28;20056;-70
2022/01/09 03:41:30;;;;;;;1.75;0.50;;;3.60;99.90;;;;;;5011837;28;20109;-70
2022/01/09 03:43:56;;;;;;;0.40;0.40;;;3.60;99.90;;;;;;5011154;28;20088;-70
2022/01/09 03:46:22;;;;;;;0.47;0.47;;;3.60;99.90;;;;;;5011535;28;20034;-70
2022/01/09 03:48:47;;;;;;;0.50;0.50;;;3.70;99.90;;;;;;5001885;28;20033;-70
2022/01/09 03:51:13;;;;;;;0.40;0.40;;;3.70;99.90;;;;;;5011703;28;20022;-70
2022/01/09 03:53:40;;;;;;;1.23;0.43;;;3.70;99.90;;;;;;5010553;28;20530;-69
2022/01/09 03:56:05;;;;;;;1.55;0.50;;;3.80;99.90;;;;;;5004069;28;20403;-70
2022/01/09 03:58:31;;;;;;;0.40;0.40;;;3.80;99.90;;;;;;5007935;28;20018;-70
2022/01/09 04:00:57;;;;;;;0.40;0.40;;;3.80;99.90;;;;;;5011673;28;20025;-70
2022/01/09 04:03:22;;;;;;;0.60;0.40;;;3.80;99.90;;;;;;5006985;28;20410;-70
2022/01/09 04:05:51;;;;;;;0.63;0.40;;;3.90;99.90;;;;;;5011520;28;20033;-69
2022/01/09 04:08:18;;;;;;;0.43;0.43;;;3.90;99.90;;;;;;5002764;28;20037;-70
2022/01/09 04:10:44;;;;;;;0.45;0.32;;;3.90;99.90;;;;;;5011335;28;20037;-70
2022/01/09 04:13:13;;;;;;;0.40;0.40;;;3.90;99.90;;;;;;5011169;28;20022;-69
2022/01/09 04:15:45;;;;;;;0.57;0.43;;;3.90;99.90;;;;;;5011117;28;20034;-69
2022/01/09 04:18:13;;;;;;;0.40;0.40;;;3.90;99.90;;;;;;4997653;28;20079;-70
2022/01/09 04:20:38;;;;;;;0.47;0.47;;;4.00;99.90;;;;;;5004939;28;20491;-69
2022/01/09 04:23:04;;;;;;;0.50;0.50;;;3.90;99.90;;;;;;5003008;28;20111;-69
2022/01/09 04:25:30;;;;;;;0.40;0.40;;;4.00;99.90;;;;;;5011041;28;20048;-69
2022/01/09 04:27:55;;;;;;;0.40;0.40;;;4.00;99.90;;;;;;5011301;28;20461;-69
2022/01/09 04:30:21;;;;;;;0.40;0.40;;;3.90;99.90;;;;;;5021443;28;20486;-68
2022/01/09 04:32:47;;;;;;;0.40;0.40;;;3.90;99.90;;;;;;5010606;28;20036;-69
2022/01/09 04:35:13;;;;;;;0.40;0.40;;;4.00;99.90;;;;;;5011149;28;20080;-69
2022/01/09 04:37:39;;;;;;;0.52;0.47;;;3.90;99.90;;;;;;5010759;28;20029;-69
2022/01/09 04:40:09;;;;;;;0.88;0.50;;;3.90;99.90;;;;;;5011042;28;20038;-68
2022/01/09 04:42:44;;;;;;;3.60;0.50;;;3.90;99.90;;;;;;5010640;28;20030;-69
2022/01/09 04:45:12;;;;;;;0.50;0.50;;;3.90;99.90;;;;;;5005713;28;20030;-70
2022/01/09 04:47:41;;;;;;;0.43;0.43;;;3.90;99.90;;;;;;5010641;28;20018;-70
2022/01/09 04:50:11;;;;;;;0.45;0.45;;;3.90;99.90;;;;;;4998298;28;20025;-69
2022/01/09 04:52:38;;;;;;;1.02;0.50;;;3.90;99.90;;;;;;5001779;28;20067;-70
2022/01/09 04:55:04;;;;;;;0.47;0.47;;;3.90;99.90;;;;;;4994100;28;20030;-69
2022/01/09 04:57:30;;;;;;;0.55;0.55;;;3.90;99.90;;;;;;5009171;28;20454;-70
2022/01/09 04:59:56;;;;;;;0.75;0.50;;;3.90;99.90;;;;;;5010121;28;20030;-69
2022/01/09 05:02:21;;;;;;;0.40;0.40;;;3.90;99.90;;;;;;5010868;28;20167;-69
2022/01/09 05:04:47;;;;;;;0.50;0.50;;;3.80;99.90;;;;;;5010000;28;20030;-69
2022/01/09 05:07:13;;;;;;;0.40;0.40;;;3.80;99.90;;;;;;5010468;28;20018;-69
2022/01/09 05:09:38;;;;;;;0.50;0.50;;;3.80;99.90;;;;;;5010643;28;20026;-71
2022/01/09 05:12:04;;;;;;;0.43;0.43;;;3.80;99.90;;;;;;5009580;28;20041;-69
2022/01/09 05:14:30;;;;;;;0.43;0.43;;;3.80;99.90;;;;;;5010601;28;20378;-69
2022/01/09 05:16:55;;;;;;;0.30;0.30;;;3.70;99.90;;;;;;5010280;28;20030;-71
2022/01/09 05:19:28;;;;;;;0.40;0.40;;;3.70;99.90;;;;;;5010117;28;20084;-69
2022/01/09 05:21:54;;;;;;;;;;;3.70;99.90;;;;;;5001640;28;20026;-69
2022/01/09 05:24:19;;;;;;;0.40;0.40;;;3.60;99.90;;;;;;5008487;28;19936;-68
2022/01/09 05:26:45;;;;;;;0.65;0.43;;;3.50;99.90;;;;;;4994297;28;20030;-69
2022/01/09 05:29:11;;;;;;;0.50;0.50;;;3.50;99.90;;;;;;5001883;28;20080;-70
2022/01/09 05:31:37;;;;;;;0.40;0.40;;;3.50;99.90;;;;;;5009641;28;20061;-68
2022/01/09 05:34:03;;;;;;;0.40;0.40;;;3.50;99.90;;;;;;5009649;28;20749;-69
2022/01/09 05:36:28;;;;;;;0.40;0.40;;;3.50;99.90;;;;;;5003712;28;20107;-69
2022/01/09 05:38:54;;;;;;;0.40;0.40;;;3.50;99.90;;;;;;4990319;28;20121;-68
2022/01/09 05:41:20;;;;;;;0.40;0.40;;;3.50;99.90;;;;;;4991628;28;20038;-69
2022/01/09 05:43:45;;;;;;;0.40;0.40;;;3.40;99.90;;;;;;5009675;28;20030;-69
2022/01/09 05:46:11;;;;;;;0.40;0.40;;;3.40;99.90;;;;;;5011512;28;20021;-70
2022/01/09 05:48:37;;;;;;;0.40;0.40;;;3.40;99.90;;;;;;5009069;28;20025;-68
2022/01/09 05:51:03;;;;;;;1.08;0.40;;;3.40;99.90;;;;;;5007480;28;20037;-69
2022/01/09 05:53:28;;;;;;;0.30;0.30;;;3.40;99.90;;;;;;5007735;28;20026;-69
2022/01/09 05:55:54;;;;;;;0.35;0.35;;;3.40;99.90;;;;;;5002062;28;20039;-69
2022/01/09 05:58:20;;;;;;;0.40;0.40;;;3.50;99.90;;;;;;5008553;28;20029;-70
2022/01/09 06:00:46;;;;;;;0.82;0.40;;;3.50;99.90;;;;;;5004024;28;20089;-69
2022/01/09 06:03:11;;;;;;;0.30;0.30;;;3.50;99.90;;;;;;5008006;28;20497;-69
2022/01/09 06:05:37;;;;;;;0.30;0.30;;;3.50;99.90;;;;;;5014051;28;20086;-69
2022/01/09 06:08:03;;;;;;;0.30;0.30;;;3.50;99.90;;;;;;5015151;28;20076;-69
2022/01/09 06:10:28;;;;;;;0.40;0.40;;;3.50;99.90;;;;;;4996320;28;20045;-70
2022/01/09 06:12:54;;;;;;;0.30;0.30;;;3.40;99.90;;;;;;5001771;28;20117;-70
2022/01/09 06:15:19;;;;;;;0.30;0.30;;;3.40;99.90;;;;;;5009326;28;20025;-69
2022/01/09 06:17:45;;;;;;;0.30;0.30;;;3.40;99.90;;;;;;5008182;28;20025;-69
2022/01/09 06:20:13;;;;;;;0.30;0.30;;;3.30;99.90;;;;;;5009023;28;20088;-68
2022/01/09 06:22:39;;;;;;;0.40;0.40;;;3.30;99.90;;;;;;5009216;28;20033;-70
2022/01/09 06:25:06;;;;;;;0.38;0.38;;;3.30;99.90;;;;;;5006784;28;20030;-69
2022/01/09 06:27:32;;;;;;;0.40;0.40;;;3.30;99.90;;;;;;4999043;28;20073;-69
2022/01/09 06:29:58;;;;;;;0.40;0.40;;;3.20;99.90;;;;;;5009534;28;20036;-69
2022/01/09 06:32:23;;;;;;;0.40;0.40;;;3.20;99.90;;;;;;5009062;28;20018;-69
2022/01/09 06:34:49;;;;;;;0.30;0.30;;;3.20;99.90;;;;;;5008690;28;20125;-69
2022/01/09 06:37:15;;;;;;;0.35;0.35;;;3.10;99.90;;;;;;5008648;28;20129;-69
2022/01/09 06:39:42;;;;;;;0.30;0.30;;;3.10;99.90;;;;;;5008374;28;20099;-69
2022/01/09 06:42:08;;;;;;;0.40;0.40;;;3.10;99.90;;;;;;5001331;28;20054;-69
2022/01/09 06:44:34;;;;;;;1.48;1.38;;;3.00;99.90;;;;;;5004392;28;20026;-70
2022/01/09 06:47:00;;;;;;;0.40;0.40;;;3.00;99.90;;;;;;5007149;28;20095;-69
2022/01/09 06:49:26;;;;;;;0.40;0.40;;;2.90;99.90;;;;;;5008626;28;20029;-68
2022/01/09 06:51:52;;;;;;;0.40;0.40;;;2.90;99.90;;;;;;5012975;28;20504;-68
2022/01/09 06:54:18;;;;;;;0.50;0.50;;;2.90;99.90;;;;;;5006914;28;20061;-69
2022/01/09 06:56:43;;;;;;;0.73;0.50;;;2.80;99.90;;;;;;5010129;28;20374;-69
2022/01/09 06:59:09;;;;;;;0.50;0.50;;;2.90;99.90;;;;;;5011723;28;20030;-69
2022/01/09 07:01:35;;;;;;;0.40;0.40;;;2.90;99.90;;;;;;5000036;28;20086;-68
2022/01/09 07:04:00;;;;;;;1.35;1.13;;;2.90;99.90;;;;;;5012143;28;20112;-68
2022/01/09 07:06:26;;;;;;;1.67;0.55;;;2.90;99.90;;;;;;5012717;28;20067;-69
2022/01/09 07:08:52;;;;;;;2.65;0.80;;;2.90;99.90;;;;;;5011741;28;20030;-69
2022/01/09 07:11:17;;;;;;;0.73;0.65;;;2.90;99.90;;;;;;5012928;28;20125;-70
2022/01/09 07:13:43;;;;;;;1.20;0.73;;;2.90;99.90;;;;;;5012629;28;20057;-69
2022/01/09 07:16:09;;;;;;;1.42;0.80;;;2.90;99.90;;;;;;5012598;28;20037;-71
2022/01/09 07:18:35;;;;;;;1.90;1.00;;;2.90;99.90;;;;;;5007282;28;20026;-69
2022/01/09 07:21:02;;;;;;;1.48;0.70;;;3.00;99.90;;;;;;5012621;28;20406;-68
2022/01/09 07:23:28;;;;;;;0.85;0.80;;;3.00;99.90;;;;;;5016850;28;20026;-69
2022/01/09 07:25:53;;;;;;;1.50;0.80;;;3.00;99.90;;;;;;5011865;28;20029;-68
2022/01/09 07:28:19;;;;;;;1.85;1.00;;;3.00;99.90;;;;;;5011509;28;20101;-68
2022/01/09 07:30:45;;;;;;;1.95;1.05;;;3.10;99.90;;;;;;5001065;28;20188;-69
2022/01/09 07:33:11;;;;;;;2.08;1.02;;;3.10;99.90;;;;;;4998031;28;20033;-69
2022/01/09 07:35:36;;;;;;;2.28;1.08;;;3.10;99.90;;;;;;5012317;28;20263;-71
2022/01/09 07:38:03;;;;;;;3.60;0.90;;;3.10;99.90;;;;;;5006192;28;20029;-69
2022/01/09 07:40:28;;;;;;;1.80;0.90;;;3.20;99.90;;;;;;5011997;28;20537;-70
2022/01/09 07:42:55;;;;;;;3.38;0.95;;;3.20;99.90;;;;;;5012371;28;20065;-68
2022/01/09 07:45:24;;;;;;;1.88;1.20;;;3.20;99.90;;;;;;5012821;28;20034;-69
2022/01/09 07:47:51;;;;;;;1.92;0.90;;;3.20;99.90;;;;;;5012251;28;20393;-69
2022/01/09 07:50:16;;;;;;;5.28;1.30;;;3.20;99.90;;;;;;5011477;28;20134;-69
2022/01/09 07:52:42;;;;;;;2.25;0.85;;;3.20;99.90;;;;;;5012977;28;20069;-69
2022/01/09 07:55:09;;;;;;;1.08;0.95;;;3.30;99.90;;;;;;5010941;28;20127;-69
2022/01/09 07:57:35;;;;;;;5.00;1.10;;;3.20;99.90;;;;;;5011103;28;20026;-68
2022/01/09 08:00:03;;;;;;;2.22;1.15;;;3.30;99.90;;;;;;5012697;28;20030;-68
2022/01/09 08:02:29;;;;;;;1.48;1.10;;;3.30;99.90;;;;;;5012001;28;20524;-68
2022/01/09 08:04:55;;;;;;;1.20;1.05;;;3.30;99.90;;;;;;5009554;28;20034;-70
2022/01/09 08:07:21;;;;;;;1.33;1.00;;;3.40;99.90;;;;;;5012503;28;20084;-70
2022/01/09 08:09:47;;;;;;;2.10;0.90;;;3.30;99.90;;;;;;5012307;28;20072;-70
2022/01/09 08:12:14;;;;;;;2.53;1.15;;;3.40;99.90;;;;;;5012202;28;20033;-68
2022/01/09 08:14:45;;;;;;;5.25;1.02;;;3.30;99.90;;;;;;5012048;28;20093;-68
2022/01/09 08:17:11;;;;;;;1.10;1.00;;;3.40;99.90;;;;;;5007113;28;20026;-69
2022/01/09 08:19:37;;;;;;;2.17;1.10;;;3.40;99.90;;;;;;5006216;28;20028;-68
2022/01/09 08:22:04;;;;;;;4.15;1.45;;;3.40;99.90;;;;;;5006843;28;20048;-68
2022/01/09 08:24:31;;;;;;;2.65;1.27;;;3.40;99.90;;;;;;5009149;28;20022;-69
2022/01/09 08:26:57;;;;;;;2.40;1.25;;;3.40;99.90;;;;;;5010964;28;20076;-68
2022/01/09 08:29:22;;;;;;;3.28;1.73;;;3.30;99.90;;;;;;5011174;28;20029;-68
2022/01/09 08:31:48;;;;;;;4.40;1.88;;;3.40;99.90;;;;;;5011636;28;20065;-69
2022/01/09 08:34:14;;;;;;;5.40;1.70;;;3.30;99.90;;;;;;5009401;28;20112;-69
2022/01/09 08:36:43;;;;;;;4.65;1.85;;;3.40;99.90;;;;;;5010716;28;20037;-69
2022/01/09 08:39:10;;;;;;;3.00;1.67;;;3.30;99.90;;;;;;5009431;28;20045;-68
2022/01/09 08:41:36;;;;;;;9.00;2.13;;;3.30;99.90;;;;;;5006829;28;20091;-68
2022/01/09 08:44:04;;;;;;;3.70;1.65;;;3.30;99.90;;;;;;5011233;28;20509;-69
2022/01/09 08:46:30;;;;;;;4.20;1.65;;;3.30;99.90;;;;;;5009830;28;20057;-68
2022/01/09 08:48:57;;;;;;;8.32;1.95;;;3.30;99.90;;;;;;5011562;28;20069;-68
2022/01/09 08:51:23;;;;;;;4.18;2.15;;;3.30;99.90;;;;;;5011119;28;20029;-69
2022/01/09 08:53:51;;;;;;;4.38;1.25;;;3.40;99.90;;;;;;5010869;28;20034;-68
2022/01/09 08:56:18;;;;;;;4.32;1.70;;;3.40;99.90;;;;;;5009061;28;20030;-69
2022/01/09 08:58:44;;;;;;;3.10;1.38;;;3.40;99.90;;;;;;5011010;28;20029;-69
2022/01/09 09:01:09;;;;;;;5.75;2.83;;;3.40;99.90;;;;;;5010464;28;20022;-69
2022/01/09 09:03:40;;;;;;;7.75;1.63;;;3.40;99.90;;;;;;5011402;28;20421;-69
2022/01/09 09:06:10;;;;;;;2.50;1.45;;;3.40;99.90;;;;;;5010855;28;20018;-69
2022/01/09 09:08:37;;;;;;;7.07;1.60;;;3.40;99.90;;;;;;5010661;28;20021;-69
2022/01/09 09:11:03;;;;;;;5.60;1.52;;;3.40;99.90;;;;;;5010865;28;20087;-69
2022/01/09 09:13:29;;;;;;;9.68;1.40;;;3.40;99.90;;;;;;5011282;28;20433;-69
2022/01/09 09:15:55;;;;;;;7.82;1.80;;;3.40;99.90;;;;;;5011090;28;20033;-68
2022/01/09 09:18:20;;;;;;;5.32;1.65;;;3.40;99.90;;;;;;4999174;28;20402;-69
2022/01/09 09:20:46;;;;;;;6.53;1.27;;;3.40;99.90;;;;;;5004653;28;20032;-69
2022/01/09 09:23:12;;;;;;;5.57;1.70;;;3.40;99.90;;;;;;5010424;28;20034;-70
2022/01/09 09:25:37;;;;;;;10.80;1.80;;;3.40;99.90;;;;;;5010891;28;20102;-70
2022/01/09 09:28:03;;;;;;;7.35;1.80;;;3.40;99.90;;;;;;5004886;28;20018;-69
2022/01/09 09:30:29;;;;;;;4.80;1.30;;;3.40;99.90;;;;;;5010514;28;20021;-69
2022/01/09 09:32:55;;;;;;;5.55;1.48;;;3.40;99.90;;;;;;5009805;28;20577;-69
2022/01/09 09:35:20;;;;;;;2.38;1.30;;;3.40;99.90;;;;;;5009951;28;20474;-69
2022/01/09 09:37:46;;;;;;;3.80;1.42;;;3.40;99.90;;;;;;5005441;28;20521;-69
2022/01/09 09:40:12;;;;;;;9.65;2.22;;;3.40;99.90;;;;;;5009923;28;20032;-69
2022/01/09 09:42:38;;;;;;;7.80;1.75;;;3.40;99.90;;;;;;5010383;28;20030;-68
2022/01/09 09:45:06;;;;;;;9.77;1.77;;;3.40;99.90;;;;;;4996770;28;20037;-73
2022/01/09 09:47:33;;;;;;;4.50;1.60;;;3.40;99.90;;;;;;5008271;28;20075;-69
2022/01/09 09:49:58;;;;;;;9.35;1.77;;;3.40;99.90;;;;;;5008256;28;20034;-69
2022/01/09 09:52:25;;;;;;;7.50;2.20;;;3.40;99.90;;;;;;5056200;23;20036;-66
2022/01/09 09:54:52;;;;;;;5.50;1.98;;;3.40;99.90;;;;;;5061523;28;20025;-65
2022/01/09 09:57:18;;;;;;;6.75;1.80;;;3.40;99.90;;;;;;5049362;28;20103;-67
2022/01/09 09:59:44;;;;;;;9.25;1.45;;;3.40;99.90;;;;;;5051182;28;20037;-65
2022/01/09 10:02:16;;;;;;;5.82;1.80;;;3.50;99.90;;;;;;5051787;28;20058;-65
2022/01/09 10:05:03;;;;;;;6.32;1.30;;;3.40;99.90;;;;;;5052850;28;20033;-67
2022/01/09 10:07:31;;;;;;;4.43;1.17;;;3.50;99.90;;;;;;5037738;28;20502;-67
2022/01/09 10:10:01;;;;;;;7.53;1.60;;;3.50;99.90;;;;;;5048559;28;20029;-65
2022/01/09 10:12:28;;;;;;;5.63;1.35;;;3.50;99.90;;;;;;5041694;28;20677;-66
2022/01/09 10:14:59;;;;;;;6.57;1.30;;;3.60;99.90;;;;;;5049252;28;20059;-67
2022/01/09 10:17:26;;;;;;;8.18;1.98;;;3.60;99.90;;;;;;5048671;28;20032;-67
2022/01/09 10:19:58;;;;;;;9.30;1.40;;;3.60;99.90;;;;;;5051072;28;20028;-66
2022/01/09 10:22:30;;;;;;;5.45;1.40;;;3.60;99.90;;;;;;5045566;28;20481;-67
2022/01/09 10:24:57;;;;;;;9.45;1.45;;;3.60;99.90;;;;;;5047927;28;20127;-65
2022/01/09 10:27:41;;;;;;;5.15;1.27;;;3.70;99.90;;;;;;5048895;28;20102;-66
2022/01/09 10:30:07;;;;;;;7.53;1.63;;;3.70;99.90;;;;;;5049449;28;20028;-66
2022/01/09 10:32:33;;;;;;;8.90;1.77;;;3.80;99.90;;;;;;5049115;28;20021;-66
2022/01/09 10:35:10;;;;;;;6.45;1.30;;;3.80;99.90;;;;;;5057038;28;20141;-66
2022/01/09 10:37:36;;;;;;;4.63;1.30;;;3.90;99.90;;;;;;5049728;28;20033;-66
2022/01/09 10:40:08;;;;;;;7.65;1.73;;;3.90;99.90;;;;;;5049939;28;20037;-67
2022/01/09 10:42:35;;;;;;;5.07;1.30;;;4.00;99.90;;;;;;5052509;28;20058;-66
2022/01/09 10:45:15;;;;;;;10.00;1.45;;;4.00;99.90;;;;;;5055508;28;20401;-64
2022/01/09 10:47:41;;;;;;;9.85;1.98;;;4.00;99.90;;;;;;5048722;28;20404;-65
2022/01/09 10:50:23;;;;;;;3.35;1.15;;;4.00;99.90;;;;;;5050914;28;20430;-65
2022/01/09 10:52:50;;;;;;;10.50;1.73;;;4.00;99.90;;;;;;5050281;28;20119;-67
2022/01/09 10:55:15;;;;;;;6.68;1.55;;;4.00;99.90;;;;;;5054255;28;20064;-68
2022/01/09 10:57:42;;;;;;;6.80;1.92;;;4.00;99.90;;;;;;5052533;28;20054;-68
2022/01/09 11:00:16;;;;;;;21.38;9.48;;;4.00;99.90;;;;;;5049526;28;20029;-65
2022/01/09 11:02:45;;;;;;;8.77;3.00;;;4.00;99.90;;;;;;5053671;28;20028;-66
2022/01/09 11:05:11;;;;;;;7.40;1.77;;;4.00;99.90;;;;;;5052128;28;20025;-65
2022/01/09 11:07:36;;;;;;;7.32;2.90;;;4.00;99.90;;;;;;5048358;28;20385;-64
2022/01/09 11:10:05;;;;;;;8.57;2.25;;;4.00;99.90;;;;;;5053037;28;20024;-64
2022/01/09 11:12:45;;;;;;;9.68;2.92;;;4.00;99.90;;;;;;5040834;28;20102;-66
2022/01/09 11:15:16;;;;;;;10.10;1.95;;;4.00;99.90;;;;;;5049258;28;20504;-65
2022/01/09 11:17:44;;;;;;;5.05;1.90;;;4.00;99.90;;;;;;5048316;28;20036;-66
2022/01/09 11:20:10;;;;;;;5.47;2.78;;;4.00;99.90;;;;;;5049468;28;20040;-65
2022/01/09 11:22:35;;;;;;;6.55;2.13;;;4.00;99.90;;;;;;5048635;28;20098;-67
2022/01/09 11:25:18;;;;;;;6.82;1.85;;;4.00;99.90;;;;;;5045404;28;20055;-66
2022/01/09 11:27:58;;;;;;;;;;;4.00;99.90;;;;;;5043817;28;20032;-65
2022/01/09 11:30:58;;;;;;;12.48;4.20;;;4.00;99.90;;;;;;5042826;28;19931;-66
2022/01/09 11:33:51;;;;;;;9.50;3.25;;;4.10;99.90;;;;;;5049474;28;20028;-65
2022/01/09 11:36:22;;;;;;;13.20;4.28;;;4.10;99.90;;;;;;5052693;28;20432;-65
2022/01/09 11:39:14;;;;;;;10.57;4.63;;;4.10;99.90;;;;;;5051923;28;20040;-66
2022/01/09 11:41:45;;;;;;;10.70;3.70;;;4.10;99.90;;;;;;5048322;28;20033;-66
2022/01/09 11:44:14;;;;;;;17.00;5.85;;;4.10;99.90;;;;;;5052422;28;20039;-65
2022/01/09 11:47:07;;;;;;;12.73;4.00;;;4.10;99.90;;;;;;5054923;28;20017;-66
2022/01/09 11:49:59;;;;;;;8.63;2.58;;;4.10;99.90;;;;;;5052838;28;20543;-67
2022/01/09 11:52:27;;;;;;;6.97;3.42;;;4.20;99.90;;;;;;5041842;28;20068;-66
2022/01/09 11:54:54;;;;;;;9.80;2.88;;;4.20;99.90;;;;;;5051811;28;20099;-67
2022/01/09 11:57:47;;;;;;;10.32;3.58;;;4.20;99.90;;;;;;5047962;28;20467;-66
2022/01/09 12:00:38;;;;;;;8.38;2.53;;;4.20;99.90;;;;;;5054050;28;20025;-67
2022/01/09 12:03:38;;;;;;;6.47;2.60;;;4.20;99.90;;;;;;5056274;28;20025;-67
2022/01/09 12:06:10;;;;;;;9.10;2.40;;;4.30;99.90;;;;;;4988702;28;20025;-66
2022/01/09 12:09:07;;;;;;;4.63;2.08;;;4.30;99.90;;;;;;5043760;28;20098;-65
2022/01/09 12:12:00;;;;;;;5.18;1.40;;;4.30;99.90;;;;;;5047897;28;20090;-67
2022/01/09 12:14:41;;;;;;;9.50;1.83;;;4.30;99.90;;;;;;5051030;28;20104;-66
2022/01/09 12:17:33;;;;;;;10.73;2.67;;;4.20;99.90;;;;;;5045572;28;20055;-67
2022/01/09 12:20:07;;;;;;;5.53;1.77;;;4.30;99.90;;;;;;5048565;28;20538;-66
2022/01/09 12:25:22;;;;;;;5.60;1.40;;;4.30;99.90;;;;;;5051769;28;20082;-67
2022/01/09 12:27:54;;;;;;;7.07;1.73;;;4.30;99.90;;;;;;5049150;28;20482;-67
2022/01/09 12:30:44;;;;;;;3.60;1.40;;;4.30;99.90;;;;;;5052075;28;20036;-67
2022/01/09 12:33:24;;;;;;;4.55;1.50;;;4.40;99.90;;;;;;5049051;28;20029;-67
2022/01/09 12:36:01;;;;;;;4.13;1.80;;;4.60;99.90;;;;;;5037211;28;20623;-66
2022/01/09 12:38:28;;;;;;;3.45;1.10;;;5.00;99.90;;;;;;5050758;28;20021;-66
2022/01/09 12:41:01;;;;;;;5.72;1.42;;;5.30;99.90;;;;;;5051047;28;20121;-66
2022/01/09 12:43:28;;;;;;;4.38;1.85;;;5.50;99.90;;;;;;5050103;28;20040;-66
2022/01/09 12:45:54;;;;;;;5.75;1.92;;;5.70;99.90;;;;;;5041888;28;20036;-67
2022/01/09 12:48:25;;;;;;;6.60;2.38;;;5.70;99.90;;;;;;5048865;28;20071;-66
2022/01/09 12:50:50;;;;;;;9.77;3.53;;;5.70;99.90;;;;;;5050443;28;20029;-67
2022/01/09 12:53:24;;;;;;;11.68;5.10;;;5.70;99.90;;;;;;5051051;28;20046;-67
2022/01/09 12:56:00;;;;;;;14.07;7.40;;;5.70;99.90;;;;;;5047866;28;20124;-67
2022/01/09 12:58:27;;;;;;;7.47;2.83;;;5.60;99.90;;;;;;5046558;28;20028;-67
2022/01/09 13:00:53;;;;;;;7.40;3.85;;;5.60;99.90;;;;;;5051786;28;20047;-66
2022/01/09 13:03:21;;;;;;;4.80;3.05;;;5.60;99.90;;;;;;5050769;28;20040;-65
2022/01/09 13:06:02;;;;;;;4.93;2.78;;;5.50;99.90;;;;;;5050289;28;20374;-71